Time;durP1;ratioP1;P1;durP2;ratioP2;P2;SDS_P1;SDS_P2;PMS_P1;PMS_P2;Temp;Humidity;BMP_temperature;BMP_pressure;BME280_temperature;BME280_humidity;BME280_pressure;Samples;Min_cycle;Max_cycle;Signal;HPM_P1;HPM_P2
2023/05/06 00:00:47;;;;;;;14.07;12.63;;;;;;;12.24;100.00;101563.06;5048391;28;19913;-76
2023/05/06 00:03:12;;;;;;;;;;;;;;;12.36;100.00;101561.09;5036275;28;20021;-76
2023/05/06 00:05:37;;;;;;;16.90;15.17;;;;;;;12.23;100.00;101561.34;5037215;28;19956;-76
2023/05/06 00:08:04;;;;;;;19.50;16.60;;;;;;;12.11;100.00;101560.59;5040929;28;20298;-76
2023/05/06 00:10:30;;;;;;;21.23;19.02;;;;;;;12.04;100.00;101554.97;5039248;28;20021;-76
2023/05/06 00:12:55;;;;;;;;;;;;;;;12.23;100.00;101556.00;5037239;28;20090;-76
2023/05/06 00:15:20;;;;;;;16.03;14.33;;;;;;;12.07;100.00;101561.88;5041347;28;19920;-76
2023/05/06 00:17:46;;;;;;;;;;;;;;;12.20;100.00;101558.94;5040425;28;20284;-76
2023/05/06 00:20:11;;;;;;;16.67;14.20;;;;;;;11.95;100.00;101555.75;5041026;28;19978;-76
2023/05/06 00:22:36;;;;;;;;;;;;;;;12.12;100.00;101556.13;5046458;28;20683;-75
2023/05/06 00:25:02;;;;;;;14.90;12.73;;;;;;;11.94;100.00;101555.88;5033456;28;19913;-75
2023/05/06 00:27:27;;;;;;;14.02;12.63;;;;;;;11.76;100.00;101552.97;5040547;28;20049;-75
2023/05/06 00:29:52;;;;;;;;;;;;;;;11.98;100.00;101565.34;5040109;28;20083;-76
2023/05/06 00:32:18;;;;;;;15.43;13.07;;;;;;;11.73;100.00;101557.59;5052925;28;20506;-75
2023/05/06 00:34:43;;;;;;;;;;;;;;;11.93;100.00;101554.22;5030387;28;20021;-75
2023/05/06 00:37:08;;;;;;;17.70;15.97;;;;;;;11.68;100.00;101549.13;5033186;28;19913;-75
2023/05/06 00:39:33;;;;;;;;;;;;;;;11.85;100.00;101550.34;5041100;28;20470;-75
2023/05/06 00:42:01;;;;;;;18.02;16.27;;;;;;;11.60;100.00;101548.94;5036968;28;20374;-75
2023/05/06 00:44:27;;;;;;;16.88;15.10;;;;;;;11.53;100.00;101545.97;5038954;28;20028;-76
2023/05/06 00:46:52;;;;;;;;;;;;;;;11.74;100.00;101553.09;5041399;28;20051;-75
2023/05/06 00:49:18;;;;;;;16.23;13.67;;;;;;;11.51;100.00;101545.22;5041409;28;20003;-76
2023/05/06 00:51:43;;;;;;;16.85;14.50;;;;;;;11.44;100.00;101545.91;5035937;28;20299;-75
2023/05/06 00:54:08;;;;;;;;;;;;;;;11.64;100.00;101550.38;5035258;28;20018;-76
2023/05/06 00:56:34;;;;;;;14.37;12.97;;;;;;;11.48;100.00;101545.50;5033707;28;20043;-75
2023/05/06 00:59:00;;;;;;;15.85;14.18;;;;;;;11.44;100.00;101536.03;5033349;28;20291;-75
2023/05/06 01:01:26;;;;;;;16.33;13.98;;;;;;;11.35;100.00;101536.84;5042947;28;20291;-75
2023/05/06 01:03:55;;;;;;;;;;;;;;;11.52;100.00;101535.41;5044959;28;20107;-75
2023/05/06 01:06:39;;;;;;;16.50;14.32;;;;;;;11.41;100.00;101536.31;5039134;28;19940;-75
2023/05/06 01:09:23;;;;;;;15.25;13.75;;;;;;;11.35;100.00;101539.50;5038458;28;20131;-74
2023/05/06 01:11:54;;;;;;;16.13;14.50;;;;;;;11.28;100.00;101541.00;5035043;28;20021;-75
2023/05/06 01:14:37;;;;;;;15.85;13.60;;;;;;;11.35;100.00;101537.69;5038070;28;20032;-75
2023/05/06 01:17:06;;;;;;;15.68;13.57;;;;;;;11.23;100.00;101543.22;5037361;28;20033;-75
2023/05/06 01:19:45;;;;;;;15.75;14.00;;;;;;;11.22;100.00;101545.06;5047661;28;20036;-74
2023/05/06 01:22:12;;;;;;;15.75;14.10;;;;;;;11.13;100.00;101536.00;5049887;28;20398;-75
2023/05/06 01:24:39;;;;;;;14.80;13.30;;;;;;;11.13;100.00;101541.34;5034970;28;20033;-75
2023/05/06 01:27:05;;;;;;;14.85;13.20;;;;;;;11.10;100.00;101536.25;5037242;28;20040;-75
2023/05/06 01:29:32;;;;;;;16.38;14.68;;;;;;;11.09;100.00;101534.53;5052487;28;20026;-74
2023/05/06 01:32:07;;;;;;;15.20;13.70;;;;;;;11.09;100.00;101526.53;5040423;28;20033;-75
2023/05/06 01:34:42;;;;;;;16.88;14.57;;;;;;;11.03;100.00;101529.72;5040502;28;20501;-75
2023/05/06 01:37:17;;;;;;;16.83;15.05;;;;;;;10.98;100.00;101534.59;5043656;28;20393;-75
2023/05/06 01:39:45;;;;;;;15.10;13.63;;;;;;;11.00;100.00;101538.00;5035931;28;20036;-75
2023/05/06 01:42:12;;;;;;;16.25;14.52;;;;;;;10.96;100.00;101533.88;5034940;28;20045;-75
2023/05/06 01:44:39;;;;;;;17.27;15.18;;;;;;;10.89;100.00;101536.22;5044866;28;20135;-75
2023/05/06 01:47:06;;;;;;;15.15;13.65;;;;;;;10.99;100.00;101536.28;5037102;28;20084;-76
2023/05/06 01:49:31;;;;;;;16.02;13.70;;;;;;;10.93;100.00;101545.66;5044906;28;20028;-74
2023/05/06 01:51:57;;;;;;;;;;;;;;;11.11;100.00;101550.44;5040008;28;20083;-75
2023/05/06 01:54:22;;;;;;;15.68;14.10;;;;;;;10.94;100.00;101549.19;5047368;28;19923;-74
2023/05/06 01:56:47;;;;;;;;;;;;;;;11.10;100.00;101554.09;5045780;28;20048;-75
2023/05/06 01:59:13;;;;;;;16.57;13.33;;;;;;;10.88;100.00;101555.03;5051064;28;19912;-75
2023/05/06 02:01:38;;;;;;;14.75;13.32;;;;;;;10.84;100.00;101557.09;5045843;28;20425;-75
2023/05/06 02:04:03;;;;;;;14.93;13.32;;;;;;;10.79;100.00;101552.13;5039021;28;20021;-75
2023/05/06 02:06:28;;;;;;;;;;;;;;;11.00;100.00;101550.50;5043598;28;20024;-75
2023/05/06 02:08:54;;;;;;;14.33;12.83;;;;;;;10.85;100.00;101552.59;5040337;28;19921;-75
2023/05/06 02:11:19;;;;;;;16.02;14.25;;;;;;;10.72;100.00;101550.09;5047559;28;20289;-75
2023/05/06 02:13:44;;;;;;;16.65;13.70;;;;;;;10.75;100.00;101553.38;5040213;28;20032;-76
2023/05/06 02:16:10;;;;;;;;;;;;;;;10.94;100.00;101559.88;5049558;28;20115;-75
2023/05/06 02:18:35;;;;;;;13.82;12.38;;;;;;;10.78;100.00;101560.25;5035619;28;19963;-76
2023/05/06 02:21:02;;;;;;;15.05;12.80;;;;;;;10.66;100.00;101567.47;5037517;28;20108;-76
2023/05/06 02:23:27;;;;;;;13.65;12.25;;;;;;;10.60;100.00;101573.28;5038463;28;20013;-76
2023/05/06 02:25:52;;;;;;;13.85;12.45;;;;;;;10.57;100.00;101568.19;5044003;28;20024;-76
2023/05/06 02:28:18;;;;;;;;;;;;;;;10.78;100.00;101565.59;5036752;28;20475;-76
2023/05/06 02:30:43;;;;;;;14.18;12.48;;;;;;;10.54;100.00;101563.13;5043729;28;19913;-76
2023/05/06 02:33:08;;;;;;;;;;;;;;;10.75;100.00;101565.88;5046307;28;20389;-76
2023/05/06 02:35:34;;;;;;;12.60;11.40;;;;;;;10.52;100.00;101560.59;5053303;28;20014;-76
2023/05/06 02:37:59;;;;;;;12.93;11.32;;;;;;;10.52;100.00;101557.91;5042530;28;20708;-75
2023/05/06 02:40:25;;;;;;;13.43;12.10;;;;;;;10.47;100.00;101569.94;5037687;28;20044;-76
2023/05/06 02:42:51;;;;;;;14.57;13.07;;;;;;;10.47;100.00;101560.13;5034675;28;20513;-75
2023/05/06 02:45:16;;;;;;;15.93;12.27;;;;;;;10.45;100.00;101566.53;5043966;28;20494;-76
2023/05/06 02:47:41;;;;;;;;;;;;;;;10.61;100.00;101559.00;5044419;28;20506;-75
2023/05/06 02:50:07;;;;;;;14.25;12.35;;;;;;;10.38;100.00;101564.38;5048707;28;19908;-76
2023/05/06 02:52:33;;;;;;;14.80;13.02;;;;;;;10.36;100.00;101553.00;5049759;28;20036;-76
2023/05/06 02:54:58;;;;;;;13.75;12.35;;;;;;;10.35;100.00;101553.09;5035816;28;20786;-75
2023/05/06 02:57:24;;;;;;;13.15;11.75;;;;;;;10.38;100.00;101550.19;5018024;28;20071;-75
2023/05/06 02:59:49;;;;;;;;;;;;;;;10.51;100.00;101556.22;5038592;28;20021;-76
2023/05/06 03:02:14;;;;;;;14.15;11.93;;;;;;;10.37;100.00;101553.81;5044405;28;20081;-75
2023/05/06 03:04:40;;;;;;;;;;;;;;;10.49;100.00;101552.00;5048836;28;20036;-75
2023/05/06 03:07:05;;;;;;;13.30;12.02;;;;;;;10.29;100.00;101554.41;5046592;28;19994;-75
2023/05/06 03:09:30;;;;;;;;;;;;;;;10.46;100.00;101565.56;5038972;28;20022;-76
2023/05/06 03:11:56;;;;;;;12.50;11.27;;;;;;;10.23;100.00;101550.41;5040676;28;19924;-75
2023/05/06 03:14:21;;;;;;;12.73;11.43;;;;;;;10.18;100.00;101551.75;5034787;28;20040;-75
2023/05/06 03:16:46;;;;;;;;;;;;;;;10.38;100.00;101550.19;5041574;28;20023;-75
2023/05/06 03:19:12;;;;;;;12.20;10.98;;;;;;;10.19;100.00;101550.78;5044254;28;19932;-75
2023/05/06 03:21:37;;;;;;;13.07;11.70;;;;;;;10.14;100.00;101547.66;5048498;28;20482;-75
2023/05/06 03:24:02;;;;;;;14.35;12.00;;;;;;;10.15;100.00;101549.31;5042196;28;20078;-76
2023/05/06 03:26:28;;;;;;;13.05;11.02;;;;;;;10.16;100.00;101549.19;5030962;28;20029;-74
2023/05/06 03:28:53;;;;;;;13.23;11.27;;;;;;;10.05;100.00;101540.38;5038691;28;21370;-75
2023/05/06 03:31:18;;;;;;;;;;;;;;;10.27;100.00;101544.84;5038983;28;20044;-75
2023/05/06 03:33:43;;;;;;;13.23;11.20;;;;;;;10.07;100.00;101541.09;5039241;28;20175;-75
2023/05/06 03:36:09;;;;;;;12.82;11.23;;;;;;;10.04;100.00;101544.84;5045310;28;21533;-75
2023/05/06 03:38:34;;;;;;;;;;;;;;;10.23;100.00;101538.91;5049752;28;20411;-75
2023/05/06 03:40:59;;;;;;;14.25;11.95;;;;;;;10.08;100.00;101534.78;5047748;28;20003;-75
2023/05/06 03:43:25;;;;;;;12.63;11.32;;;;;;;10.01;100.00;101529.09;5042802;28;20063;-73
2023/05/06 03:45:50;;;;;;;12.32;11.02;;;;;;;10.00;100.00;101530.09;5038681;28;20489;-74
2023/05/06 03:48:15;;;;;;;;;;;;;;;10.16;100.00;101541.19;5042103;28;20032;-73
2023/05/06 03:50:41;;;;;;;11.30;10.20;;;;;;;10.01;100.00;101537.09;5041301;28;19942;-73
2023/05/06 03:53:06;;;;;;;11.70;10.52;;;;;;;9.97;100.00;101541.81;5044834;28;20310;-73
2023/05/06 03:55:32;;;;;;;12.13;10.73;;;;;;;9.97;100.00;101543.66;5053427;28;20027;-73
2023/05/06 03:57:57;;;;;;;11.80;10.38;;;;;;;9.93;100.00;101552.84;5045070;28;21191;-74
2023/05/06 04:00:22;;;;;;;;;;;;;;;10.13;100.00;101551.25;5033031;28;20032;-74
2023/05/06 04:02:47;;;;;;;12.33;10.13;;;;;;;9.93;100.00;101551.03;5042034;28;19916;-73
2023/05/06 04:05:13;;;;;;;14.27;10.68;;;;;;;9.97;100.00;101554.31;5038020;28;20813;-73
2023/05/06 04:07:38;;;;;;;;;;;;;;;10.12;100.00;101553.09;5045825;28;20039;-73
2023/05/06 04:10:04;;;;;;;11.90;10.00;;;;;;;9.93;100.00;101547.53;5043690;28;20567;-73
2023/05/06 04:12:29;;;;;;;10.80;9.70;;;;;;;9.97;100.00;101548.97;5054983;28;20539;-76
2023/05/06 04:14:55;;;;;;;12.98;10.60;;;;;;;9.95;100.00;101548.25;5030189;28;20048;-73
2023/05/06 04:17:20;;;;;;;14.50;10.75;;;;;;;9.98;100.00;101551.53;5037375;28;20426;-73
2023/05/06 04:19:46;;;;;;;11.30;10.20;;;;;;;10.00;100.00;101556.72;5037314;28;20129;-74
2023/05/06 04:22:11;;;;;;;12.05;10.45;;;;;;;10.02;100.00;101552.13;5048128;28;20066;-74
2023/05/06 04:24:36;;;;;;;12.75;10.50;;;;;;;10.00;100.00;101551.41;5045409;28;20163;-74
2023/05/06 04:27:02;;;;;;;;;;;;;;;10.18;100.00;101557.09;5038224;28;20029;-74
2023/05/06 04:29:27;;;;;;;11.75;9.65;;;;;;;10.07;100.00;101559.75;5039869;28;20430;-75
2023/05/06 04:31:52;;;;;;;;;;;;;;;10.23;100.00;101560.22;5035590;28;20037;-73
2023/05/06 04:34:18;;;;;;;12.37;10.10;;;;;;;10.14;100.00;101567.16;5046954;28;19913;-73
2023/05/06 04:36:43;;;;;;;11.32;10.07;;;;;;;10.22;100.00;101562.06;5043333;28;21022;-73
2023/05/06 04:39:09;;;;;;;13.30;9.98;;;;;;;10.18;100.00;101563.25;5039401;28;20033;-73
2023/05/06 04:41:35;;;;;;;13.15;10.15;;;;;;;10.19;100.00;101562.28;5041374;28;20035;-73
2023/05/06 04:44:00;;;;;;;;;;;;;;;10.37;100.00;101572.50;5036690;28;20038;-74
2023/05/06 04:46:25;;;;;;;18.90;10.17;;;;;;;10.27;100.00;101560.81;5050758;28;19958;-73
2023/05/06 04:48:51;;;;;;;12.30;9.57;;;;;;;10.29;100.00;101567.75;5034003;28;20734;-73
2023/05/06 04:51:16;;;;;;;10.93;9.23;;;;;;;10.34;100.00;101568.28;5034717;28;20083;-74
2023/05/06 04:53:42;;;;;;;12.43;10.18;;;;;;;10.28;100.00;101570.53;5043095;28;20633;-73
2023/05/06 04:56:07;;;;;;;11.35;9.52;;;;;;;10.40;100.00;101577.59;5032361;28;20116;-73
2023/05/06 04:58:32;;;;;;;;;;;;;;;10.54;100.00;101577.31;5042156;28;20119;-73
2023/05/06 05:01:03;;;;;;;11.00;9.77;;;;;;;10.52;100.00;101581.09;5037652;28;19920;-73
2023/05/06 05:03:28;;;;;;;11.10;9.35;;;;;;;10.59;100.00;101584.97;5037338;28;20337;-73
2023/05/06 05:05:54;;;;;;;10.20;9.18;;;;;;;10.56;100.00;101588.69;5034654;28;20045;-74
2023/05/06 05:08:20;;;;;;;;;;;;;;;10.76;100.00;101591.56;5033854;28;20033;-74
2023/05/06 05:10:45;;;;;;;13.35;9.25;;;;;;;10.72;100.00;101590.97;5034972;28;20304;-74
2023/05/06 05:13:10;;;;;;;9.68;8.73;;;;;;;10.70;100.00;101587.59;5035921;28;20111;-74
2023/05/06 05:15:36;;;;;;;;;;;;;;;10.93;100.00;101596.38;5037287;28;20037;-73
2023/05/06 05:18:01;;;;;;;10.95;8.80;;;;;;;10.90;100.00;101601.94;5031774;28;19913;-74
2023/05/06 05:20:27;;;;;;;;;;;;;;;11.10;100.00;101599.50;5038138;28;20017;-74
2023/05/06 05:22:52;;;;;;;12.18;9.05;;;;;;;11.12;100.00;101594.84;5037637;28;19921;-74
2023/05/06 05:25:17;;;;;;;;;;;;;;;11.26;100.00;101599.06;5030605;28;20083;-73
2023/05/06 05:27:42;;;;;;;10.40;8.07;;;;;;;11.20;100.00;101605.72;5039191;28;19917;-74
2023/05/06 05:30:08;;;;;;;11.57;8.82;;;;;;;11.27;100.00;101601.59;5040672;28;20959;-74
2023/05/06 05:32:33;;;;;;;;;;;;;;;11.46;100.00;101605.38;5048092;28;20037;-74
2023/05/06 05:34:59;;;;;;;10.63;8.97;;;;;;;11.35;100.00;101606.28;5039453;28;19924;-74
2023/05/06 05:37:24;;;;;;;8.60;7.68;;;;;;;11.42;100.00;101614.63;5035806;28;20378;-75
2023/05/06 05:39:49;;;;;;;;;;;;;;;11.59;100.00;101614.06;5044185;28;20366;-74
2023/05/06 05:42:15;;;;;;;8.73;7.57;;;;;;;11.57;100.00;101618.69;5039516;28;19916;-75
2023/05/06 05:44:40;;;;;;;10.25;7.93;;;;;;;11.61;100.00;101619.28;5044739;28;20029;-73
2023/05/06 05:47:05;;;;;;;;;;;;;;;11.81;100.00;101618.41;5045349;28;20024;-73
2023/05/06 05:49:31;;;;;;;9.82;8.10;;;;;;;11.83;100.00;101610.25;5029556;28;20012;-74
2023/05/06 05:51:56;;;;;;;;;;;;;;;11.99;100.00;101618.69;5036775;28;20035;-76
2023/05/06 05:54:21;;;;;;;11.25;8.25;;;;;;;11.97;100.00;101620.63;5036445;28;19925;-74
2023/05/06 05:56:46;;;;;;;;;;;;;;;12.15;100.00;101612.84;5039554;28;20112;-74
2023/05/06 05:59:12;;;;;;;10.50;7.80;;;;;;;12.14;100.00;101618.34;5043587;28;19920;-74
2023/05/06 06:01:37;;;;;;;;;;;;;;;12.33;100.00;101617.56;5041102;28;20035;-74
2023/05/06 06:04:02;;;;;;;12.13;7.67;;;;;;;12.27;100.00;101614.47;5042220;28;19966;-74
2023/05/06 06:06:28;;;;;;;11.45;7.60;;;;;;;12.35;100.00;101608.41;5046569;28;20806;-73
2023/05/06 06:08:53;;;;;;;;;;;;;;;12.56;100.00;101612.84;5047421;28;20108;-74
2023/05/06 06:11:18;;;;;;;10.00;6.95;;;;;;;12.59;100.00;101609.91;5038074;28;19916;-74
2023/05/06 06:13:43;;;;;;;;;;;;;;;12.79;100.00;101616.16;5037536;28;20064;-74
2023/05/06 06:16:09;;;;;;;8.57;6.40;;;;;;;12.78;100.00;101607.28;5052063;28;20013;-74
2023/05/06 06:18:35;;;;;;;;;;;;;;;13.03;100.00;101618.44;5046725;28;20654;-74
2023/05/06 06:21:00;;;;;;;10.48;6.57;;;;;;;12.98;100.00;101618.00;5049240;28;19920;-74
2023/05/06 06:23:25;;;;;;;;;;;;;;;13.29;100.00;101615.19;5036435;28;20091;-73
2023/05/06 06:25:51;;;;;;;7.50;6.13;;;;;;;13.34;100.00;101618.31;5033870;28;19912;-74
2023/05/06 06:28:16;;;;;;;;;;;;;;;13.53;100.00;101621.00;5040510;28;20024;-74
2023/05/06 06:30:41;;;;;;;8.40;6.05;;;;;;;13.56;100.00;101625.22;5043112;28;20176;-74
2023/05/06 06:33:06;;;;;;;;;;;;;;;13.82;100.00;101624.63;5046086;28;20056;-74
2023/05/06 06:35:31;;;;;;;9.75;5.78;;;;;;;13.98;100.00;101619.50;5043440;28;19913;-74
2023/05/06 06:37:57;;;;;;;;;;;;;;;14.18;100.00;101618.44;5058223;28;20028;-74
2023/05/06 06:40:22;;;;;;;9.17;5.83;;;;;;;14.21;100.00;101619.97;5040859;28;20019;-74
2023/05/06 06:42:47;;;;;;;;;;;;;;;14.55;100.00;101625.63;5037374;28;20640;-73
2023/05/06 06:45:13;;;;;;;7.07;5.32;;;;;;;14.75;100.00;101626.38;5039061;28;20278;-73
2023/05/06 06:47:38;;;;;;;;;;;;;;;15.07;100.00;101626.88;5039309;28;20058;-73
2023/05/06 06:50:04;;;;;;;8.93;6.20;;;;;;;15.19;100.00;101631.03;5036510;28;19916;-73
2023/05/06 06:52:30;;;;;;;7.13;5.78;;;;;;;15.40;100.00;101621.81;5035989;28;20435;-73
2023/05/06 06:54:55;;;;;;;;;;;;;;;15.77;100.00;101624.31;5039492;28;20025;-73
2023/05/06 06:57:20;;;;;;;7.38;5.13;;;;;;;15.92;100.00;101626.41;5040761;28;20379;-74
2023/05/06 06:59:46;;;;;;;8.02;5.15;;;;;;;16.13;100.00;101628.72;5047766;28;20052;-73
2023/05/06 07:02:11;;;;;;;8.10;5.45;;;;;;;16.54;100.00;101634.31;5045975;28;20136;-73
2023/05/06 07:04:37;;;;;;;7.32;5.13;;;;;;;16.66;100.00;101627.63;5048590;28;20026;-74
2023/05/06 07:07:02;;;;;;;7.05;5.40;;;;;;;16.92;100.00;101619.47;5040228;28;20016;-73
2023/05/06 07:09:27;;;;;;;8.35;5.65;;;;;;;17.19;100.00;101634.50;5040731;28;20084;-73
2023/05/06 07:11:52;;;;;;;8.40;5.47;;;;;;;17.29;100.00;101630.81;5044003;28;20052;-74
2023/05/06 07:14:19;;;;;;;7.15;5.53;;;;;;;17.34;100.00;101633.84;5045220;28;21264;-74
2023/05/06 07:16:44;;;;;;;9.50;5.40;;;;;;;17.64;100.00;101626.09;5038789;28;20020;-74
2023/05/06 07:19:09;;;;;;;7.45;5.68;;;;;;;17.88;100.00;101641.41;5048548;28;20026;-74
2023/05/06 07:21:35;;;;;;;11.40;5.85;;;;;;;17.92;100.00;101632.00;5047026;28;20039;-74
2023/05/06 07:24:00;;;;;;;8.02;5.05;;;;;;;18.24;100.00;101628.34;5047503;28;20544;-73
2023/05/06 07:26:26;;;;;;;8.82;6.78;;;;;;;18.29;100.00;101633.22;5045746;28;20120;-73
2023/05/06 07:28:51;;;;;;;12.13;8.45;;;;;;;18.17;100.00;101630.06;5050336;28;20390;-73
2023/05/06 07:31:19;;;;;;;10.63;7.28;;;;;;;18.40;100.00;101627.44;5048470;28;20032;-74
2023/05/06 07:33:46;;;;;;;17.55;8.38;;;;;;;18.23;100.00;101628.50;5034578;28;20029;-73
2023/05/06 07:36:11;;;;;;;10.05;7.40;;;;;;;18.61;100.00;101634.13;5034421;28;20022;-73
2023/05/06 12:14:22;;;;;;;2.53;1.30;;;;;;;22.97;100.00;101523.78;5114593;27;20443;-73
2023/05/06 12:16:48;;;;;;;1.88;0.95;;;;;;;23.49;100.00;101518.56;5108309;27;20572;-75
2023/05/06 12:19:17;;;;;;;2.60;1.23;;;;;;;23.96;100.00;101519.28;5111232;27;20058;-75
2023/05/06 12:21:43;;;;;;;2.92;1.20;;;;;;;24.20;100.00;101519.63;5111553;27;20031;-72
2023/05/06 12:24:08;;;;;;;2.75;1.00;;;;;;;24.64;100.00;101519.84;5110569;27;20516;-73
2023/05/06 12:26:48;;;;;;;1.73;0.88;;;;;;;25.05;100.00;101532.13;5112435;27;20031;-73
2023/05/06 12:29:16;;;;;;;2.28;1.10;;;;;;;25.02;100.00;101524.41;5117353;27;20042;-73
2023/05/06 12:31:48;;;;;;;4.00;1.20;;;;;;;24.95;100.00;101527.19;5116494;27;20031;-73
2023/05/06 12:34:16;;;;;;;2.72;1.20;;;;;;;24.93;100.00;101529.31;5114403;27;20096;-73
2023/05/06 12:36:43;;;;;;;3.35;2.28;;;;;;;24.97;100.00;101518.78;5111403;27;20083;-73
2023/05/06 12:39:10;;;;;;;3.55;1.00;;;;;;;25.12;100.00;101529.34;5117273;27;20507;-72
2023/05/06 12:41:40;;;;;;;2.58;1.40;;;;;;;25.11;100.00;101525.78;5111629;27;20028;-73
2023/05/06 12:44:33;;;;;;;1.20;0.90;;;;;;;25.21;100.00;101523.41;5114960;27;20028;-73
2023/05/06 12:47:01;;;;;;;2.45;1.00;;;;;;;25.23;100.00;101532.19;5113230;27;20073;-73
2023/05/06 12:49:27;;;;;;;4.07;1.15;;;;;;;25.19;100.00;101525.53;5111348;27;20036;-73
2023/05/06 12:52:19;;;;;;;2.63;1.40;;;;;;;25.55;100.00;101526.66;5121229;27;20034;-72
2023/05/06 12:54:45;;;;;;;2.67;1.00;;;;;;;25.13;100.00;101522.84;5110533;27;20124;-73
2023/05/06 12:57:10;;;;;;;2.00;0.65;;;;;;;25.05;100.00;101518.47;5116066;27;20697;-73
2023/05/06 12:59:36;;;;;;;2.17;0.98;;;;;;;25.38;100.00;101517.38;5111990;27;20513;-73
2023/05/06 13:02:02;;;;;;;2.15;0.90;;;;;;;25.29;100.00;101523.13;5114465;27;20027;-73
2023/05/06 13:04:28;;;;;;;3.15;1.02;;;;;;;25.33;100.00;101528.97;5114766;27;20028;-73
2023/05/06 13:06:54;;;;;;;1.83;0.80;;;;;;;25.29;100.00;101519.56;5113636;27;20668;-73
2023/05/06 13:09:20;;;;;;;2.47;0.95;;;;;;;25.51;100.00;101514.53;5112341;27;20027;-72
2023/05/06 13:11:45;;;;;;;1.33;0.70;;;;;;;25.12;100.00;101511.06;5114120;27;20078;-73
2023/05/06 13:14:10;;;;;;;2.20;0.90;;;;;;;25.26;100.00;101517.28;5115116;27;20027;-72
2023/05/06 13:16:37;;;;;;;2.30;0.90;;;;;;;25.17;100.00;101518.59;5115926;27;20065;-73
2023/05/06 13:19:03;;;;;;;2.03;0.80;;;;;;;25.07;100.00;101519.09;5116683;27;20023;-73
2023/05/06 13:21:30;;;;;;;1.90;0.70;;;;;;;24.92;100.00;101520.25;5116125;27;20066;-72
2023/05/06 13:23:55;;;;;;;3.35;0.98;;;;;;;24.80;100.00;101521.19;5107923;27;20055;-73
2023/05/06 13:26:20;;;;;;;8.40;6.50;;;;;;;24.96;100.00;101520.66;5098329;27;20032;-72
2023/05/06 13:28:46;;;;;;;4.10;2.10;;;;;;;25.14;100.00;101519.03;5100150;27;20032;-73
2023/05/06 13:31:11;;;;;;;2.00;0.90;;;;;;;24.95;100.00;101512.69;5098240;27;20031;-72
2023/05/06 13:33:36;;;;;;;4.00;0.95;;;;;;;25.06;100.00;101511.97;5101225;27;21048;-72
2023/05/06 13:36:02;;;;;;;3.05;1.10;;;;;;;25.17;100.00;101518.59;5099663;28;20028;-72
2023/05/06 13:38:27;;;;;;;4.05;1.00;;;;;;;25.12;100.00;101518.44;5101555;28;20142;-73
2023/05/06 13:40:53;;;;;;;3.58;1.05;;;;;;;25.16;100.00;101508.72;5112102;27;20016;-73
2023/05/06 13:43:20;;;;;;;3.45;1.05;;;;;;;25.17;100.00;101505.78;5095758;27;20039;-73
2023/05/06 13:45:45;;;;;;;5.95;1.10;;;;;;;25.00;100.00;101496.47;5100807;28;20119;-72
2023/05/06 13:48:13;;;;;;;3.08;0.93;;;;;;;25.31;100.00;101495.59;5101843;28;20142;-73
2023/05/06 13:50:46;;;;;;;4.28;1.02;;;;;;;25.38;100.00;101496.38;5098503;28;20027;-72
2023/05/06 13:53:12;;;;;;;2.83;1.00;;;;;;;24.92;100.00;101492.16;5095899;28;20036;-73
2023/05/06 13:55:38;;;;;;;3.03;0.90;;;;;;;25.01;100.00;101498.16;5103933;27;20045;-73
2023/05/06 13:58:04;;;;;;;3.40;1.02;;;;;;;24.80;100.00;101500.22;5097375;28;20477;-72
2023/05/06 14:00:30;;;;;;;2.33;0.90;;;;;;;24.84;100.00;101496.00;5097647;27;20039;-72
2023/05/06 14:02:56;;;;;;;2.38;0.90;;;;;;;24.62;100.00;101495.50;5095971;27;20514;-72
2023/05/06 14:05:21;;;;;;;3.40;0.95;;;;;;;24.61;100.00;101484.81;5093381;27;20028;-72
2023/05/06 14:07:46;;;;;;;3.85;1.20;;;;;;;24.50;100.00;101480.88;5098680;28;20027;-72
2023/05/06 14:10:12;;;;;;;3.17;1.30;;;;;;;24.43;100.00;101485.53;5098654;28;20054;-72
2023/05/06 14:12:38;;;;;;;3.00;0.98;;;;;;;24.40;100.00;101485.97;5097876;27;20151;-72
2023/05/06 14:15:09;;;;;;;3.20;1.05;;;;;;;24.45;100.00;101481.53;5098543;27;20441;-73
2023/05/06 14:17:35;;;;;;;4.38;1.00;;;;;;;24.39;100.00;101478.88;5089088;28;20047;-73
2023/05/06 14:20:01;;;;;;;2.70;0.90;;;;;;;24.15;100.00;101473.94;5097360;28;20020;-72
2023/05/06 14:22:27;;;;;;;4.05;1.20;;;;;;;24.32;100.00;101468.00;5097443;27;20028;-72
2023/05/06 14:24:53;;;;;;;5.32;1.52;;;;;;;24.14;100.00;101472.28;5093691;28;20032;-72
2023/05/06 14:27:19;;;;;;;3.35;0.95;;;;;;;24.09;100.00;101463.09;5097048;28;21378;-72
2023/05/06 14:29:45;;;;;;;2.30;0.95;;;;;;;23.96;100.00;101464.81;5096517;28;20135;-72
2023/05/06 14:32:11;;;;;;;2.45;1.15;;;;;;;23.99;100.00;101468.19;5099484;28;20024;-72
2023/05/06 14:34:36;;;;;;;4.65;1.00;;;;;;;23.89;100.00;101471.34;5097594;27;20028;-72
2023/05/06 14:37:01;;;;;;;2.53;1.00;;;;;;;23.77;100.00;101466.56;5093388;27;20361;-73
2023/05/06 14:39:27;;;;;;;10.63;4.88;;;;;;;23.90;100.00;101465.69;5097423;28;20027;-73
2023/05/06 14:41:52;;;;;;;12.10;1.52;;;;;;;23.94;100.00;101460.66;5099461;28;20027;-72
2023/05/06 14:44:17;;;;;;;2.50;1.00;;;;;;;23.85;100.00;101459.22;5094300;27;20024;-72
2023/05/06 14:46:43;;;;;;;4.22;1.23;;;;;;;23.79;100.00;101458.16;5100506;27;20084;-73
2023/05/06 14:49:08;;;;;;;3.72;1.27;;;;;;;23.78;100.00;101453.75;5093805;28;20461;-73
2023/05/06 14:51:33;;;;;;;4.38;0.98;;;;;;;23.73;100.00;101459.84;5099668;28;20130;-73
2023/05/06 14:53:59;;;;;;;2.83;0.95;;;;;;;23.61;100.00;101453.41;5101628;28;20468;-73
2023/05/06 14:56:24;;;;;;;3.58;1.20;;;;;;;23.50;100.00;101446.72;5098886;28;20036;-73
2023/05/06 14:58:50;;;;;;;4.47;1.33;;;;;;;23.48;100.00;101445.28;5097998;28;20046;-73
2023/05/06 15:01:15;;;;;;;4.07;1.00;;;;;;;23.39;100.00;101447.41;5096206;28;20032;-73
2023/05/06 15:03:41;;;;;;;4.00;0.90;;;;;;;23.23;100.00;101448.69;5101161;28;20047;-72
2023/05/06 15:06:06;;;;;;;4.38;1.63;;;;;;;23.18;100.00;101445.75;5096375;27;20070;-72
2023/05/06 15:08:31;;;;;;;1.95;0.90;;;;;;;23.12;100.00;101454.75;5094307;28;20032;-73
2023/05/06 15:10:57;;;;;;;2.05;0.88;;;;;;;22.96;100.00;101456.81;5098661;28;20019;-73
2023/05/06 15:13:22;;;;;;;2.38;0.80;;;;;;;22.94;100.00;101456.19;5099585;27;20023;-73
2023/05/06 15:15:47;;;;;;;4.55;1.40;;;;;;;22.67;100.00;101468.97;5101762;28;20476;-74
2023/05/06 15:18:13;;;;;;;3.60;1.95;;;;;;;22.49;100.00;101471.44;5099347;27;20093;-74
2023/05/06 15:20:38;;;;;;;4.30;1.73;;;;;;;22.22;100.00;101468.63;5095900;28;20423;-73
2023/05/06 15:23:03;;;;;;;4.32;1.45;;;;;;;21.82;100.00;101466.59;5097081;28;20024;-73
2023/05/06 15:25:29;;;;;;;5.00;1.23;;;;;;;21.71;100.00;101469.88;5097881;27;20023;-73
2023/05/06 15:27:55;;;;;;;5.47;1.48;;;;;;;21.30;100.00;101487.78;5098224;27;20024;-73
2023/05/06 15:30:20;;;;;;;3.20;0.98;;;;;;;21.24;100.00;101485.84;5100156;27;20035;-73
2023/05/06 15:32:47;;;;;;;3.28;1.10;;;;;;;20.98;100.00;101480.22;5096543;27;20609;-72
2023/05/06 15:35:13;;;;;;;2.67;1.05;;;;;;;20.84;100.00;101487.41;5092665;27;20115;-73
2023/05/06 15:37:38;;;;;;;4.32;1.75;;;;;;;20.62;100.00;101491.97;5097530;28;20027;-74
2023/05/06 15:40:08;;;;;;;4.93;2.40;;;;;;;20.59;100.00;101488.59;5098809;28;20430;-73
2023/05/06 15:42:36;;;;;;;7.30;5.97;;;;;;;20.44;100.00;101487.81;5097546;28;20063;-73
2023/05/06 15:45:03;;;;;;;11.57;8.82;;;;;;;20.38;100.00;101488.56;5097063;28;20030;-73
2023/05/06 15:47:28;;;;;;;6.80;4.40;;;;;;;20.28;100.00;101488.03;5096515;28;20030;-73
2023/05/06 15:49:54;;;;;;;2.80;1.02;;;;;;;20.21;100.00;101496.09;5102728;28;20472;-73
2023/05/06 15:52:20;;;;;;;2.42;1.23;;;;;;;20.14;100.00;101496.03;5096343;28;20028;-73
2023/05/06 15:54:45;;;;;;;2.22;0.95;;;;;;;20.03;100.00;101500.03;5097086;28;20039;-73